createdAt,value
2019-03-16T00:02:31.540Z,12.26
2019-03-16T00:07:40.412Z,12.44
2019-03-16T00:12:49.382Z,15.36
2019-03-16T00:17:58.291Z,12.79
2019-03-16T00:23:07.173Z,13.86
2019-03-16T00:28:16.076Z,11.13
2019-03-16T00:33:25.011Z,11.50
2019-03-16T00:38:33.882Z,12.07
2019-03-16T00:43:42.841Z,11.31
2019-03-16T00:48:51.705Z,10.42
2019-03-16T00:54:00.628Z,12.27
2019-03-16T00:59:09.524Z,11.04
2019-03-16T01:04:18.461Z,13.74
2019-03-16T01:09:27.327Z,13.02
2019-03-16T01:14:36.289Z,10.47
2019-03-16T01:19:45.196Z,13.74
2019-03-16T01:24:54.103Z,21.11
2019-03-16T01:30:03.031Z,13.03
2019-03-16T01:35:11.896Z,10.89
2019-03-16T01:40:20.890Z,30.79
2019-03-16T01:45:29.806Z,13.22
2019-03-16T01:50:38.752Z,14.29
2019-03-16T01:55:47.659Z,17.27
2019-03-16T02:00:56.607Z,10.77
2019-03-16T02:06:05.512Z,11.33
2019-03-16T02:11:14.493Z,10.55
2019-03-16T02:16:23.395Z,11.47
2019-03-16T02:21:32.419Z,9.80
2019-03-16T02:26:41.294Z,9.70
2019-03-16T02:31:50.261Z,18.00
2019-03-16T02:36:59.122Z,12.72
2019-03-16T02:42:08.059Z,11.90
2019-03-16T02:47:16.954Z,17.10
2019-03-16T02:52:25.995Z,15.22
2019-03-16T02:57:34.899Z,11.24
2019-03-16T03:02:43.896Z,12.95
2019-03-16T03:07:52.788Z,14.60
2019-03-16T03:13:01.686Z,12.59
2019-03-16T03:18:10.544Z,9.97
2019-03-16T03:23:19.465Z,14.85
2019-03-16T03:28:28.347Z,19.83
2019-03-16T03:33:57.844Z,16.31
2019-03-16T03:38:45.721Z,13.39
2019-03-16T03:43:54.629Z,15.72
2019-03-16T03:49:03.525Z,15.43
2019-03-16T03:54:12.425Z,12.82
2019-03-16T03:59:21.380Z,16.86
2019-03-16T04:04:30.280Z,15.49
2019-03-16T04:09:39.237Z,15.06
2019-03-16T04:14:48.138Z,13.05
2019-03-16T04:19:57.023Z,15.24
2019-03-16T04:25:05.927Z,14.45
2019-03-16T04:30:14.981Z,12.11
2019-03-16T04:35:23.856Z,11.96
2019-03-16T04:40:32.817Z,13.42
2019-03-16T04:45:41.760Z,11.79
2019-03-16T04:50:50.683Z,11.91
2019-03-16T04:55:59.589Z,13.17
2019-03-16T05:01:08.461Z,12.33
2019-03-16T05:06:17.309Z,13.24
2019-03-16T05:11:26.235Z,15.39
2019-03-16T05:16:35.111Z,12.67
2019-03-16T05:21:44.079Z,29.52
2019-03-16T05:26:52.993Z,11.87
2019-03-16T05:32:01.906Z,19.66
2019-03-16T05:37:10.797Z,13.88
2019-03-16T05:42:19.717Z,24.34
2019-03-16T05:47:28.621Z,29.07
2019-03-16T05:52:37.509Z,55.07
2019-03-16T05:57:46.383Z,26.58
2019-03-16T06:02:55.304Z,42.62
2019-03-16T06:08:04.243Z,61.32
2019-03-16T06:13:13.088Z,35.42
2019-03-16T06:18:22.011Z,31.24
2019-03-16T06:23:30.875Z,20.41
2019-03-16T06:28:39.768Z,24.35
2019-03-16T06:33:48.612Z,11.22
2019-03-16T06:38:57.548Z,14.77
2019-03-16T06:44:06.390Z,9.61
2019-03-16T06:49:15.325Z,10.91
2019-03-16T06:54:24.214Z,9.01
2019-03-16T06:59:33.156Z,15.15
2019-03-16T07:04:42.090Z,12.19
2019-03-16T07:09:51.016Z,39.49
2019-03-16T07:14:59.877Z,27.11
2019-03-16T07:20:08.828Z,30.26
2019-03-16T07:25:17.716Z,23.22
2019-03-16T07:30:26.664Z,14.68
2019-03-16T07:35:35.517Z,17.25
2019-03-16T07:40:44.464Z,13.78
2019-03-16T07:45:53.324Z,13.76
2019-03-16T07:51:02.199Z,13.41
2019-03-16T07:56:11.095Z,14.83
2019-03-16T08:01:19.995Z,15.82
2019-03-16T08:06:28.900Z,13.59
2019-03-16T08:11:37.776Z,13.93
2019-03-16T08:16:46.684Z,14.36
2019-03-16T08:21:55.592Z,17.03
2019-03-16T08:27:07.382Z,12.35
2019-03-16T08:32:12.837Z,17.81
2019-03-16T08:37:21.795Z,20.23
2019-03-16T08:42:30.688Z,29.05
2019-03-16T08:47:39.600Z,29.83
2019-03-16T08:52:48.523Z,33.99
2019-03-16T08:58:06.034Z,22.24
2019-03-16T09:03:05.881Z,24.52
2019-03-16T09:08:14.772Z,21.11
2019-03-16T09:13:23.656Z,19.38
2019-03-16T09:18:32.530Z,21.26
2019-03-16T09:23:41.388Z,18.39
2019-03-16T09:28:59.583Z,21.15
2019-03-16T09:33:58.709Z,21.42
2019-03-16T09:39:07.608Z,26.22
2019-03-16T09:44:16.456Z,28.00
2019-03-16T09:49:25.328Z,32.26
2019-03-16T09:54:34.194Z,27.65
2019-03-16T09:59:43.104Z,37.23
2019-03-16T10:04:52.023Z,33.66
2019-03-16T10:10:00.945Z,40.93
2019-03-16T10:15:09.826Z,38.39
2019-03-16T10:20:18.713Z,37.56
2019-03-16T10:25:27.653Z,33.89
2019-03-16T10:30:36.529Z,29.60
2019-03-16T10:35:45.445Z,29.30
2019-03-16T10:40:54.316Z,29.83
2019-03-16T10:46:03.222Z,25.31
2019-03-16T10:51:12.103Z,24.40
2019-03-16T10:56:21.025Z,21.17
2019-03-16T11:01:29.906Z,22.29
2019-03-16T11:06:39.295Z,17.30
2019-03-16T11:11:48.165Z,18.77
2019-03-16T11:16:57.084Z,21.24
2019-03-16T11:22:05.971Z,17.58
2019-03-16T11:27:17.189Z,23.49
2019-03-16T11:32:23.307Z,21.08
2019-03-16T11:37:36.219Z,19.50
2019-03-16T11:42:35.079Z,17.15
2019-03-16T11:47:44.007Z,20.76
2019-03-16T11:52:52.901Z,22.24
2019-03-16T11:58:01.763Z,20.83
2019-03-16T12:03:10.645Z,24.51
2019-03-16T12:08:19.551Z,21.01
2019-03-16T12:13:28.443Z,20.75
2019-03-16T12:18:37.285Z,19.27
2019-03-16T12:23:46.183Z,20.05
2019-03-16T12:28:55.079Z,18.95
2019-03-16T12:34:03.992Z,22.56
2019-03-16T12:39:12.888Z,21.10
2019-03-16T12:44:21.825Z,21.77
2019-03-16T12:49:30.723Z,29.93
2019-03-16T12:54:39.596Z,33.78
2019-03-16T12:59:48.495Z,25.66
2019-03-16T13:04:57.443Z,26.13
2019-03-16T13:10:06.302Z,21.26
2019-03-16T13:15:15.232Z,17.75
2019-03-16T13:20:24.088Z,21.64
2019-03-16T13:25:32.965Z,23.12
2019-03-16T13:30:41.860Z,20.35
2019-03-16T13:35:50.826Z,18.61
2019-03-16T13:40:59.643Z,15.56
2019-03-16T13:46:08.539Z,17.20
2019-03-16T13:51:17.443Z,11.02
2019-03-16T13:56:26.312Z,15.29
2019-03-16T14:01:35.184Z,12.50
2019-03-16T14:06:44.045Z,14.15
2019-03-16T14:11:52.952Z,11.81
2019-03-16T14:17:01.836Z,15.93
2019-03-16T14:22:10.749Z,13.92
2019-03-16T14:27:19.629Z,13.29
2019-03-16T14:32:28.531Z,11.45
2019-03-16T14:37:37.396Z,11.57
2019-03-16T14:42:46.274Z,9.91
2019-03-16T14:47:55.204Z,10.77
2019-03-16T14:53:04.086Z,11.73
2019-03-16T14:58:12.950Z,12.78
2019-03-16T15:03:21.827Z,12.13
2019-03-16T15:08:30.720Z,10.36
2019-03-16T15:13:39.562Z,10.60
2019-03-16T15:18:48.443Z,8.04
2019-03-16T15:23:57.293Z,10.18
2019-03-16T15:29:06.202Z,10.34
2019-03-16T15:34:15.084Z,9.71
2019-03-16T15:39:23.993Z,11.74
2019-03-16T15:44:32.879Z,9.89
2019-03-16T15:49:41.753Z,12.14
2019-03-16T15:54:50.644Z,10.10
2019-03-16T15:59:59.567Z,11.25
2019-03-16T16:05:08.489Z,14.60
2019-03-16T16:10:17.389Z,12.21
2019-03-16T16:15:26.271Z,9.87
2019-03-16T16:20:35.183Z,10.42
2019-03-16T16:25:44.087Z,12.88
2019-03-16T16:30:52.949Z,10.46
2019-03-16T16:36:02.002Z,11.02
2019-03-16T16:41:10.885Z,8.34
2019-03-16T16:46:19.934Z,9.79
2019-03-16T16:51:28.844Z,12.98
2019-03-16T16:56:37.787Z,11.99
2019-03-16T17:01:46.687Z,11.48
2019-03-16T17:06:55.569Z,13.49
2019-03-16T17:12:04.439Z,13.54
2019-03-16T17:17:13.331Z,10.68
2019-03-16T17:22:22.223Z,12.10
2019-03-16T17:27:31.167Z,15.14
2019-03-16T17:32:40.055Z,11.71
2019-03-16T17:37:48.944Z,11.29
2019-03-16T17:42:57.863Z,11.82
2019-03-16T17:48:06.776Z,15.62
2019-03-16T17:53:15.659Z,14.66
2019-03-16T17:58:24.551Z,14.14
2019-03-16T18:03:33.408Z,13.81
2019-03-16T18:08:42.291Z,15.76
2019-03-16T18:13:51.170Z,13.03
2019-03-16T18:19:00.247Z,13.19
2019-03-16T18:24:09.163Z,16.81
2019-03-16T18:29:18.079Z,15.06
2019-03-16T18:34:26.941Z,12.57
2019-03-16T18:39:35.871Z,15.67
2019-03-16T18:44:44.760Z,14.22
2019-03-16T18:49:53.696Z,15.03
2019-03-16T18:55:02.603Z,12.86
2019-03-16T19:00:11.488Z,13.55
2019-03-16T19:05:20.400Z,12.52
2019-03-16T19:10:29.283Z,12.78
2019-03-16T19:15:38.223Z,15.58
2019-03-16T19:20:47.099Z,13.12
2019-03-16T19:25:55.981Z,13.65
2019-03-16T19:31:04.884Z,14.65
2019-03-16T19:36:13.789Z,19.19
2019-03-16T19:41:22.676Z,18.27
2019-03-16T19:46:31.572Z,18.76
2019-03-16T19:51:40.479Z,19.81
2019-03-16T19:56:49.400Z,20.73
2019-03-16T20:01:58.283Z,20.63
2019-03-16T20:07:18.764Z,20.26
2019-03-16T20:12:15.769Z,16.93
2019-03-16T20:17:24.643Z,23.47
2019-03-16T20:22:33.523Z,20.54
2019-03-16T20:27:42.395Z,17.04
2019-03-16T20:33:03.010Z,16.72
2019-03-16T20:37:59.689Z,16.48
2019-03-16T20:43:12.391Z,17.82
2019-03-16T20:48:11.053Z,18.59
2019-03-16T20:53:20.036Z,16.86
2019-03-16T20:58:28.861Z,18.06
2019-03-16T21:03:37.864Z,13.17
2019-03-16T21:08:47.129Z,14.40
2019-03-16T21:13:55.831Z,13.37
2019-03-16T21:19:04.745Z,14.87
2019-03-16T21:24:14.396Z,19.13
2019-03-16T21:29:26.230Z,15.60
2019-03-16T21:34:33.379Z,18.31
2019-03-16T21:39:40.196Z,16.60
2019-03-16T21:44:49.288Z,15.85
2019-03-16T21:49:58.194Z,12.56
2019-03-16T21:55:07.060Z,13.56
2019-03-16T22:00:15.962Z,25.80
2019-03-16T22:05:24.851Z,34.93
2019-03-16T22:10:33.715Z,24.55
2019-03-16T22:15:42.685Z,19.99
2019-03-16T22:20:51.626Z,40.58
2019-03-16T22:26:00.577Z,35.34
2019-03-16T22:31:09.451Z,26.48
2019-03-16T22:36:18.324Z,24.94
2019-03-16T22:41:27.235Z,22.40
2019-03-16T22:46:36.108Z,21.98
2019-03-16T22:51:45.040Z,16.09
2019-03-16T22:56:53.947Z,17.54
2019-03-16T23:02:02.878Z,12.75
2019-03-16T23:07:11.762Z,14.08
2019-03-16T23:12:20.689Z,20.64
2019-03-16T23:17:29.568Z,14.35
2019-03-16T23:22:38.485Z,15.65
2019-03-16T23:27:47.376Z,21.47
2019-03-16T23:32:56.327Z,15.80
2019-03-16T23:38:05.237Z,19.99
2019-03-16T23:43:14.123Z,14.94
2019-03-16T23:48:23.003Z,11.25
2019-03-16T23:53:31.916Z,12.48
2019-03-16T23:58:40.876Z,20.33
